Terminal Aerodrome Forecast
Issued by NWS St Louis, MO

Home | Current Version | Previous Version | Text Only | Print | Product List | Glossary On
Versions: 1 2 3 4 5 6 7 8 9 10 11 12 13 14 15 16 17 18
000
FTUS43 KLSX 152000 AAA
TAFCOU
TAF AMD
KCOU 152026Z 1520/1618 10007KT P6SM OVC060
      TEMPO 1520/1522 -RA
     FM160800 VRB03KT 6SM BR OVC015
     FM161500 VRB03KT P6SM BKN020=

USA.gov is the U.S. government's official web portal to all federal, state and local government web resources and services.